Time;durP1;ratioP1;P1;durP2;ratioP2;P2;SDS_P1;SDS_P2;PMS_P1;PMS_P2;Temp;Humidity;BMP_temperature;BMP_pressure;BME280_temperature;BME280_humidity;BME280_pressure;Samples;Min_cycle;Max_cycle;Signal;HPM_P1;HPM_P2
2023/06/27 00:00:19;;;;;;;2.92;1.60;;;18.90;99.90;;;;;;5014971;28;20199;-75
2023/06/27 00:02:47;;;;;;;4.15;1.77;;;18.90;99.90;;;;;;5013665;28;20701;-75
2023/06/27 00:05:15;;;;;;;3.05;1.75;;;18.80;99.90;;;;;;5019259;28;20570;-75
2023/06/27 00:07:43;;;;;;;3.05;1.80;;;18.70;99.90;;;;;;5008758;28;20196;-75
2023/06/27 00:10:11;;;;;;;2.50;1.75;;;18.70;99.90;;;;;;4993059;28;20199;-75
2023/06/27 00:12:39;;;;;;;3.08;2.15;;;18.30;99.90;;;;;;5014880;28;20219;-75
2023/06/27 00:15:07;;;;;;;4.78;1.92;;;18.30;99.90;;;;;;5009954;28;20204;-75
2023/06/27 00:17:46;;;;;;;2.97;1.90;;;18.40;99.90;;;;;;5011289;28;20199;-75
2023/06/27 00:20:14;;;;;;;2.58;1.80;;;18.30;99.90;;;;;;4973401;28;20197;-75
2023/06/27 00:22:42;;;;;;;3.22;2.05;;;18.40;99.90;;;;;;4973338;28;20216;-75
2023/06/27 00:25:10;;;;;;;3.55;1.88;;;18.40;99.90;;;;;;4990932;28;20196;-75
2023/06/27 00:27:38;;;;;;;3.83;2.22;;;18.30;99.90;;;;;;5014327;28;20199;-75
2023/06/27 00:30:08;;;;;;;3.08;1.90;;;18.40;99.90;;;;;;5009396;28;20195;-75
2023/06/27 00:32:35;;;;;;;2.78;1.98;;;18.30;99.90;;;;;;4992307;28;20226;-75
2023/06/27 00:35:04;;;;;;;3.67;2.03;;;18.30;99.90;;;;;;5009493;28;20206;-75
2023/06/27 00:37:31;;;;;;;2.55;1.95;;;18.30;99.90;;;;;;4999224;28;20203;-75
2023/06/27 00:40:00;;;;;;;3.67;2.30;;;18.10;99.90;;;;;;4992876;28;20195;-75
2023/06/27 00:42:28;;;;;;;4.40;2.60;;;18.10;99.90;;;;;;5007680;28;20220;-75
2023/06/27 00:44:55;;;;;;;5.60;2.67;;;18.10;99.90;;;;;;4993697;28;20195;-75
2023/06/27 00:47:22;;;;;;;4.47;2.53;;;18.30;99.90;;;;;;4992602;28;20218;-75
2023/06/27 00:49:50;;;;;;;3.13;2.45;;;18.50;99.90;;;;;;5016153;28;20198;-75
2023/06/27 00:52:17;;;;;;;3.63;2.67;;;18.50;99.90;;;;;;5009094;28;20219;-75
2023/06/27 00:54:47;;;;;;;3.63;2.17;;;18.30;99.90;;;;;;4992378;28;20200;-75
2023/06/27 00:57:16;;;;;;;4.82;2.47;;;18.30;99.90;;;;;;5012184;28;20208;-75
2023/06/27 00:59:44;;;;;;;4.60;2.38;;;18.40;99.90;;;;;;4996679;28;20195;-75
2023/06/27 01:02:13;;;;;;;2.75;2.42;;;18.50;99.90;;;;;;5013971;28;20234;-75
2023/06/27 01:04:40;;;;;;;5.07;2.97;;;18.50;99.90;;;;;;5023935;28;20198;-75
2023/06/27 01:07:12;;;;;;;4.85;2.80;;;18.40;99.90;;;;;;5011290;28;20199;-75
2023/06/27 01:09:46;;;;;;;4.07;2.83;;;18.50;99.90;;;;;;5013675;28;20199;-75
2023/06/27 01:12:20;;;;;;;5.03;2.50;;;18.50;99.90;;;;;;5021358;28;20235;-75
2023/06/27 01:14:50;;;;;;;5.93;3.05;;;18.20;99.90;;;;;;5009592;28;20191;-75
2023/06/27 01:17:21;;;;;;;5.28;2.75;;;18.00;99.90;;;;;;4990679;28;20666;-75
2023/06/27 01:19:52;;;;;;;2.78;2.17;;;17.90;99.90;;;;;;4994656;28;20199;-75
2023/06/27 01:22:29;;;;;;;3.28;2.65;;;17.90;99.90;;;;;;5012377;28;20223;-75
2023/06/27 01:24:59;;;;;;;2.90;2.50;;;17.90;99.90;;;;;;5019030;28;20214;-75
2023/06/27 01:27:28;;;;;;;5.65;2.25;;;18.00;99.90;;;;;;4997971;28;20561;-75
2023/06/27 01:29:55;;;;;;;4.53;2.47;;;18.20;99.90;;;;;;5006436;28;20215;-74
2023/06/27 01:32:27;;;;;;;4.03;2.42;;;18.40;99.90;;;;;;5011490;28;20231;-75
2023/06/27 01:35:18;;;;;;;2.70;2.45;;;18.50;99.90;;;;;;5016809;28;20199;-75
2023/06/27 01:37:54;;;;;;;3.95;2.28;;;18.30;99.90;;;;;;5010628;28;20196;-75
2023/06/27 01:44:15;;;;;;;3.67;2.30;;;17.90;99.90;;;;;;5012412;28;20187;-75
2023/06/27 01:46:43;;;;;;;6.40;2.85;;;17.90;99.90;;;;;;4996844;28;20200;-75
2023/06/27 01:49:11;;;;;;;5.88;2.90;;;17.70;99.90;;;;;;4997122;28;20199;-75
2023/06/27 01:51:40;;;;;;;5.97;2.55;;;17.80;99.90;;;;;;5026788;28;20222;-75
2023/06/27 01:54:07;;;;;;;6.30;2.95;;;17.90;99.90;;;;;;5008331;28;20210;-75
2023/06/27 01:56:35;;;;;;;4.28;2.80;;;17.80;99.90;;;;;;5008988;28;20196;-75
2023/06/27 01:59:03;;;;;;;3.53;2.55;;;17.80;99.90;;;;;;5014563;28;20564;-75
2023/06/27 02:01:31;;;;;;;5.43;2.95;;;17.90;99.90;;;;;;5020500;28;20230;-75
2023/06/27 02:04:01;;;;;;;5.93;2.60;;;17.80;99.90;;;;;;5006129;28;20645;-75
2023/06/27 02:06:28;;;;;;;5.10;3.38;;;17.80;99.90;;;;;;5016109;28;20203;-75
2023/06/27 02:08:55;;;;;;;4.75;3.60;;;17.60;99.90;;;;;;5033053;28;20218;-75
2023/06/27 02:11:23;;;;;;;5.03;3.00;;;17.60;99.90;;;;;;5023610;28;20589;-75
2023/06/27 02:13:50;;;;;;;3.55;3.25;;;17.60;99.90;;;;;;5002658;28;20211;-75
2023/06/27 02:16:18;;;;;;;5.00;3.50;;;17.70;99.90;;;;;;5021035;28;20548;-75
2023/06/27 02:18:47;;;;;;;10.68;3.95;;;17.70;99.90;;;;;;5014412;28;20180;-75
2023/06/27 02:21:14;;;;;;;4.90;3.20;;;17.40;99.90;;;;;;4995992;28;20219;-75
2023/06/27 02:23:41;;;;;;;5.05;3.45;;;17.50;99.90;;;;;;5023865;28;20199;-75
2023/06/27 02:26:11;;;;;;;6.07;3.25;;;17.60;99.90;;;;;;4997582;28;20196;-75
2023/06/27 02:28:38;;;;;;;5.90;3.63;;;17.50;99.90;;;;;;4996527;28;20207;-74
2023/06/27 02:31:06;;;;;;;4.22;3.15;;;17.50;99.90;;;;;;4994511;28;20219;-75
2023/06/27 02:33:33;;;;;;;4.70;3.20;;;17.60;99.90;;;;;;5004881;28;20228;-75
2023/06/27 02:36:04;;;;;;;6.32;3.42;;;17.80;99.90;;;;;;5017525;28;20195;-75
2023/06/27 02:38:32;;;;;;;3.38;3.08;;;17.90;99.90;;;;;;5013852;28;20211;-75
2023/06/27 02:40:59;;;;;;;4.07;3.10;;;17.90;99.90;;;;;;5013447;28;20196;-75
2023/06/27 02:43:27;;;;;;;5.32;3.30;;;17.90;99.90;;;;;;5028966;28;20199;-75
2023/06/27 02:45:57;;;;;;;4.13;3.60;;;17.70;99.90;;;;;;4995307;28;20202;-75
2023/06/27 02:48:25;;;;;;;6.15;4.25;;;17.50;99.90;;;;;;4998952;28;20210;-75
2023/06/27 02:50:54;;;;;;;8.07;4.15;;;17.50;99.90;;;;;;5010745;28;20211;-75
2023/06/27 02:53:22;;;;;;;8.02;3.55;;;17.60;99.90;;;;;;5015325;28;20222;-75
2023/06/27 02:55:52;;;;;;;5.80;3.28;;;17.50;99.90;;;;;;5014036;28;20195;-75
2023/06/27 02:58:19;;;;;;;7.07;3.63;;;17.50;99.90;;;;;;5009258;28;20251;-75
2023/06/27 03:00:47;;;;;;;4.43;2.80;;;17.40;99.90;;;;;;5007214;28;20698;-75
2023/06/27 03:03:14;;;;;;;5.93;3.78;;;17.40;99.90;;;;;;5023200;28;20195;-75
2023/06/27 03:05:42;;;;;;;5.90;3.40;;;17.50;99.90;;;;;;5005532;28;20195;-75
2023/06/27 03:08:09;;;;;;;4.95;3.38;;;17.40;99.90;;;;;;5023845;28;20214;-75
2023/06/27 03:10:38;;;;;;;4.85;3.35;;;17.30;99.90;;;;;;5011998;28;20218;-75
2023/06/27 03:13:06;;;;;;;4.55;2.90;;;17.40;99.90;;;;;;5011392;28;20216;-74
2023/06/27 03:15:34;;;;;;;5.47;3.50;;;17.60;99.90;;;;;;5015093;28;20215;-75
2023/06/27 03:18:03;;;;;;;3.30;2.90;;;17.50;99.90;;;;;;5023925;28;20191;-75
2023/06/27 03:20:30;;;;;;;4.13;3.03;;;17.70;99.90;;;;;;5011037;28;20195;-75
2023/06/27 03:22:57;;;;;;;4.72;3.67;;;17.50;99.90;;;;;;4998104;28;20214;-75
2023/06/27 03:25:25;;;;;;;7.72;3.60;;;17.60;99.90;;;;;;4990312;28;20204;-75
2023/06/27 03:27:54;;;;;;;4.90;3.65;;;17.70;99.90;;;;;;5000904;28;20544;-75
2023/06/27 03:30:22;;;;;;;4.40;3.25;;;17.60;99.90;;;;;;4993954;28;20206;-75
2023/06/27 03:32:50;;;;;;;4.13;3.72;;;17.50;99.90;;;;;;5012730;28;20230;-75
2023/06/27 03:35:17;;;;;;;6.85;3.60;;;17.60;99.90;;;;;;5011171;28;20206;-75
2023/06/27 03:37:45;;;;;;;5.53;3.35;;;17.50;99.90;;;;;;5002578;28;20200;-75
2023/06/27 03:40:12;;;;;;;7.88;4.00;;;17.80;99.90;;;;;;5011361;28;20202;-75
2023/06/27 03:42:41;;;;;;;7.35;4.43;;;17.70;99.90;;;;;;5007495;28;20673;-75
2023/06/27 03:45:11;;;;;;;7.13;4.20;;;17.40;99.90;;;;;;4988837;28;20289;-75
2023/06/27 03:47:39;;;;;;;7.40;4.82;;;17.40;99.90;;;;;;5005914;28;20204;-75
2023/06/27 03:50:07;;;;;;;8.30;4.25;;;17.50;99.90;;;;;;5001462;28;20200;-74
2023/06/27 03:52:35;;;;;;;7.10;4.93;;;17.60;99.90;;;;;;4991694;28;20223;-75
2023/06/27 03:55:03;;;;;;;8.70;4.82;;;17.60;99.90;;;;;;5010062;28;20681;-75
2023/06/27 03:57:31;;;;;;;6.95;4.57;;;17.60;99.90;;;;;;4988499;28;20212;-75
2023/06/27 03:59:59;;;;;;;5.07;3.90;;;17.60;99.90;;;;;;5014838;28;20204;-76
2023/06/27 04:02:28;;;;;;;7.40;4.18;;;17.50;99.90;;;;;;5009593;28;20278;-76
2023/06/27 04:04:56;;;;;;;6.53;4.50;;;17.80;99.90;;;;;;4991741;28;20207;-76
2023/06/27 04:07:23;;;;;;;7.38;4.15;;;17.70;99.90;;;;;;5014127;28;20204;-76
2023/06/27 04:09:50;;;;;;;6.70;4.88;;;17.70;99.90;;;;;;4995094;28;20214;-76
2023/06/27 04:12:18;;;;;;;7.22;4.07;;;17.80;99.90;;;;;;5008431;28;20234;-76
2023/06/27 04:14:47;;;;;;;7.07;4.00;;;17.80;99.90;;;;;;4994352;28;20575;-76
2023/06/27 04:17:14;;;;;;;9.25;4.28;;;17.80;99.90;;;;;;4988536;28;20200;-76
2023/06/27 04:19:43;;;;;;;7.13;4.30;;;18.20;99.90;;;;;;5003334;28;20192;-76
2023/06/27 04:22:11;;;;;;;7.90;4.43;;;17.80;99.90;;;;;;5009448;28;20216;-77
2023/06/27 04:24:38;;;;;;;7.20;3.95;;;17.80;99.90;;;;;;5009325;28;20196;-76
2023/06/27 04:27:08;;;;;;;5.10;4.10;;;17.70;99.90;;;;;;4990301;28;20192;-76
2023/06/27 04:29:36;;;;;;;8.27;3.90;;;17.80;99.90;;;;;;5010119;28;20229;-74
2023/06/27 04:32:27;;;;;;;6.45;4.57;;;17.60;99.90;;;;;;4981272;28;20235;-75
2023/06/27 04:35:15;;;;;;;5.97;4.65;;;17.30;99.90;;;;;;5008687;28;20219;-75
2023/06/27 04:37:57;;;;;;;7.80;5.35;;;17.30;99.90;;;;;;4985879;28;20204;-75
2023/06/27 04:40:26;;;;;;;7.20;4.80;;;17.40;99.90;;;;;;5003951;28;21042;-75
2023/06/27 04:42:53;;;;;;;8.05;5.43;;;17.50;99.90;;;;;;5000769;28;20732;-75
2023/06/27 04:45:21;;;;;;;7.05;4.40;;;17.40;99.90;;;;;;4997619;28;20669;-75
2023/06/27 04:47:48;;;;;;;5.88;4.78;;;17.50;99.90;;;;;;5011408;28;20649;-76
2023/06/27 04:50:20;;;;;;;7.20;4.85;;;17.70;99.90;;;;;;5013050;28;20200;-76
2023/06/27 04:52:47;;;;;;;6.90;4.53;;;17.70;99.90;;;;;;5003861;28;20215;-76
2023/06/27 04:55:15;;;;;;;9.27;5.10;;;17.50;99.90;;;;;;4986062;28;20196;-75
2023/06/27 04:58:18;;;;;;;8.27;4.70;;;17.40;99.90;;;;;;5007864;28;20203;-76
2023/06/27 05:00:47;;;;;;;7.10;4.95;;;17.60;99.90;;;;;;4991710;28;20670;-75
2023/06/27 05:03:14;;;;;;;9.07;4.80;;;17.80;99.90;;;;;;5016446;28;20283;-75
2023/06/27 05:05:54;;;;;;;6.72;4.07;;;17.90;99.90;;;;;;5027648;28;20206;-75
2023/06/27 05:08:21;;;;;;;6.95;4.38;;;17.90;99.90;;;;;;5013737;28;20207;-75
2023/06/27 05:10:50;;;;;;;7.88;4.07;;;18.00;99.90;;;;;;5005649;28;20206;-75
2023/06/27 05:13:35;;;;;;;6.25;3.97;;;18.10;99.90;;;;;;5009762;28;20215;-75
2023/06/27 05:16:05;;;;;;;8.43;4.10;;;17.80;99.90;;;;;;5028188;28;20199;-75
2023/06/27 05:18:38;;;;;;;10.30;4.57;;;18.00;99.90;;;;;;5011877;28;20212;-76
2023/06/27 05:21:07;;;;;;;7.53;3.97;;;18.10;99.90;;;;;;5010666;28;20211;-75
2023/06/27 05:23:35;;;;;;;7.22;4.47;;;18.00;99.90;;;;;;4993022;28;20254;-75
2023/06/27 05:26:15;;;;;;;7.65;3.60;;;17.90;99.90;;;;;;5010040;28;20196;-75
2023/06/27 05:28:42;;;;;;;7.70;4.28;;;17.90;99.90;;;;;;5006145;28;20218;-75
2023/06/27 05:31:10;;;;;;;8.95;3.70;;;18.10;99.90;;;;;;4997517;28;20219;-75
2023/06/27 05:33:37;;;;;;;9.20;3.85;;;18.30;99.90;;;;;;5013792;28;20226;-75
2023/06/27 05:36:08;;;;;;;8.68;3.45;;;18.40;99.90;;;;;;5014538;28;20200;-76
2023/06/27 05:38:35;;;;;;;8.75;3.70;;;18.50;99.90;;;;;;4998247;28;20695;-75
2023/06/27 05:41:06;;;;;;;11.07;4.05;;;18.70;99.90;;;;;;4995279;28;20657;-75
2023/06/27 05:43:35;;;;;;;11.25;4.13;;;18.70;99.90;;;;;;5005412;28;20195;-75
2023/06/27 05:46:03;;;;;;;7.95;3.90;;;18.70;99.90;;;;;;5010153;28;20192;-75
2023/06/27 05:48:30;;;;;;;8.65;3.90;;;18.30;99.90;;;;;;5011639;28;20218;-75
2023/06/27 05:50:58;;;;;;;10.63;4.88;;;18.40;99.90;;;;;;5003074;28;20207;-75
2023/06/27 05:53:26;;;;;;;7.53;3.88;;;18.70;99.90;;;;;;5007522;28;20565;-75
2023/06/27 05:55:54;;;;;;;9.63;4.13;;;18.70;99.90;;;;;;5007879;28;20202;-75
2023/06/27 05:58:21;;;;;;;8.98;4.43;;;18.60;99.90;;;;;;5014717;28;20674;-75
2023/06/27 06:00:49;;;;;;;8.43;4.85;;;18.60;99.90;;;;;;5009073;28;20187;-75
2023/06/27 06:03:16;;;;;;;14.10;4.88;;;18.10;99.90;;;;;;4989835;28;20212;-75
2023/06/27 06:05:43;;;;;;;8.50;4.20;;;18.30;99.90;;;;;;5009318;28;20199;-75
2023/06/27 06:08:11;;;;;;;9.93;3.95;;;18.30;99.90;;;;;;5006787;28;20204;-75
2023/06/27 06:10:40;;;;;;;11.75;4.90;;;18.40;99.90;;;;;;5010583;28;20292;-75
2023/06/27 06:13:07;;;;;;;10.93;4.97;;;18.20;99.90;;;;;;5003513;28;20714;-75
2023/06/27 06:15:34;;;;;;;9.88;4.55;;;17.90;99.90;;;;;;5005367;28;20223;-75
2023/06/27 06:18:02;;;;;;;7.63;4.40;;;17.70;99.90;;;;;;5007330;28;20662;-75
2023/06/27 06:20:30;;;;;;;10.13;4.45;;;17.50;99.90;;;;;;5011406;28;20196;-75
2023/06/27 06:22:59;;;;;;;9.63;5.00;;;17.50;99.90;;;;;;4993755;28;20227;-75
2023/06/27 06:25:27;;;;;;;11.02;5.53;;;17.50;99.90;;;;;;4978332;28;20203;-75
2023/06/27 06:27:56;;;;;;;9.82;5.28;;;17.50;99.90;;;;;;5014117;28;20191;-75
2023/06/27 06:30:23;;;;;;;9.85;4.63;;;17.50;99.90;;;;;;4993604;28;20207;-76
2023/06/27 06:32:50;;;;;;;9.10;4.30;;;17.60;99.90;;;;;;5004554;28;20834;-75
2023/06/27 06:35:18;;;;;;;9.82;4.38;;;17.70;99.90;;;;;;5007729;28;20706;-75
2023/06/27 06:37:45;;;;;;;9.52;4.45;;;17.80;99.90;;;;;;5016312;28;20219;-75
2023/06/27 06:40:13;;;;;;;10.57;4.90;;;18.00;99.90;;;;;;4990525;28;20207;-76
2023/06/27 06:42:41;;;;;;;9.75;4.13;;;18.10;99.90;;;;;;4993257;28;20235;-75
2023/06/27 06:45:10;;;;;;;10.13;4.82;;;18.10;99.90;;;;;;5020820;28;20188;-75
2023/06/27 06:47:37;;;;;;;10.65;4.70;;;18.10;99.90;;;;;;5006043;28;20200;-75
2023/06/27 06:50:06;;;;;;;8.18;4.68;;;17.90;99.90;;;;;;5008837;28;20195;-75
2023/06/27 06:56:24;;;;;;;8.57;4.80;;;18.10;99.90;;;;;;5015775;28;20206;-74
2023/06/27 06:58:51;;;;;;;9.38;4.60;;;18.30;99.90;;;;;;5022631;28;20271;-76
2023/06/27 07:01:20;;;;;;;10.05;4.72;;;18.30;99.90;;;;;;5026798;28;20223;-76
2023/06/27 07:04:02;;;;;;;8.48;5.28;;;18.50;99.90;;;;;;5010136;28;20199;-75
2023/06/27 07:06:44;;;;;;;8.25;4.55;;;18.50;99.90;;;;;;5008739;28;20568;-77
2023/06/27 07:09:12;;;;;;;9.90;5.28;;;19.10;99.90;;;;;;5008870;28;20681;-77
2023/06/27 07:11:39;;;;;;;8.25;4.68;;;19.10;99.90;;;;;;5025689;28;20698;-75
2023/06/27 07:14:07;;;;;;;12.10;5.60;;;18.50;99.90;;;;;;5024638;28;20219;-76
2023/06/27 07:16:35;;;;;;;10.98;5.50;;;18.60;99.90;;;;;;5009763;28;20218;-75
2023/06/27 07:19:03;;;;;;;10.35;5.35;;;18.80;99.90;;;;;;5004239;28;20203;-75
2023/06/27 07:21:31;;;;;;;14.82;6.20;;;18.40;99.90;;;;;;5026904;28;20339;-75
2023/06/27 07:23:58;;;;;;;11.52;5.63;;;18.40;99.90;;;;;;5004529;28;20207;-75
2023/06/27 07:26:26;;;;;;;13.90;5.18;;;18.50;99.90;;;;;;5007882;28;20210;-75
2023/06/27 07:28:53;;;;;;;9.60;5.75;;;18.90;99.90;;;;;;5017544;28;20207;-75
2023/06/27 07:31:21;;;;;;;8.23;5.32;;;18.90;99.90;;;;;;5009273;28;20400;-75
2023/06/27 07:33:50;;;;;;;9.70;5.22;;;19.10;99.90;;;;;;5007355;28;20217;-75
2023/06/27 07:36:17;;;;;;;10.75;5.55;;;19.10;99.90;;;;;;5005269;28;20688;-75
2023/06/27 07:38:45;;;;;;;13.15;5.25;;;19.10;99.90;;;;;;5008418;28;20196;-75
2023/06/27 07:41:12;;;;;;;9.93;5.13;;;19.30;99.90;;;;;;5019310;28;20248;-75
2023/06/27 07:43:40;;;;;;;11.52;5.82;;;19.10;99.90;;;;;;5001380;28;20196;-75
2023/06/27 07:46:07;;;;;;;10.55;5.32;;;19.30;99.90;;;;;;5015077;28;20203;-75
2023/06/27 07:48:35;;;;;;;10.20;5.75;;;18.90;99.90;;;;;;5020611;28;20196;-75
2023/06/27 07:51:04;;;;;;;16.35;6.40;;;18.90;99.90;;;;;;5009183;28;20199;-75
2023/06/27 07:53:31;;;;;;;11.48;6.40;;;18.90;99.90;;;;;;4996224;28;20199;-75
2023/06/27 07:55:59;;;;;;;11.70;6.07;;;18.80;99.90;;;;;;5012855;28;20574;-75
2023/06/27 07:58:26;;;;;;;10.80;5.47;;;19.10;99.90;;;;;;4994124;28;20203;-75
2023/06/27 08:00:54;;;;;;;13.82;5.97;;;19.40;99.90;;;;;;4996880;28;20206;-75
2023/06/27 08:03:22;;;;;;;10.88;5.15;;;19.60;99.90;;;;;;5012611;28;20203;-74
2023/06/27 08:05:49;;;;;;;10.65;5.10;;;19.60;99.90;;;;;;5002371;28;20199;-75
2023/06/27 08:08:18;;;;;;;9.77;4.68;;;19.60;99.90;;;;;;5028984;28;20191;-76
2023/06/27 08:10:45;;;;;;;10.13;5.18;;;19.60;99.90;;;;;;5008648;28;20204;-75
2023/06/27 08:13:13;;;;;;;16.10;5.18;;;19.90;99.90;;;;;;5026748;28;20314;-75
2023/06/27 08:15:40;;;;;;;9.40;5.05;;;20.20;99.90;;;;;;4991944;28;20220;-75
2023/06/27 08:18:08;;;;;;;10.80;5.10;;;20.00;99.90;;;;;;4975543;28;20196;-75
2023/06/27 08:20:35;;;;;;;10.55;5.93;;;19.90;99.90;;;;;;5018223;28;20210;-75
2023/06/27 08:23:02;;;;;;;9.60;5.95;;;20.20;99.90;;;;;;4986273;28;20228;-76
2023/06/27 08:25:31;;;;;;;10.30;5.05;;;20.20;99.90;;;;;;5001604;28;20467;-75
2023/06/27 08:27:59;;;;;;;10.82;4.93;;;20.00;99.90;;;;;;5005799;28;20207;-75
2023/06/27 08:30:28;;;;;;;10.48;4.70;;;20.30;99.90;;;;;;5010333;28;20206;-75
2023/06/27 08:32:56;;;;;;;15.23;5.93;;;20.40;99.90;;;;;;5011964;28;20589;-75
2023/06/27 08:35:23;;;;;;;9.95;4.43;;;20.20;99.90;;;;;;5010981;28;20223;-75
2023/06/27 08:37:51;;;;;;;9.93;4.57;;;20.60;99.90;;;;;;4986395;28;20204;-75
2023/06/27 08:40:21;;;;;;;11.13;5.18;;;20.70;99.90;;;;;;5005122;28;20211;-75
2023/06/27 08:42:50;;;;;;;7.80;4.35;;;20.80;99.90;;;;;;5012924;28;20591;-75
2023/06/27 08:45:17;;;;;;;6.97;4.10;;;20.80;99.90;;;;;;4996297;28;20198;-75
2023/06/27 08:47:47;;;;;;;10.55;4.43;;;20.90;99.90;;;;;;4994073;28;20206;-75
2023/06/27 08:50:15;;;;;;;7.60;4.47;;;21.00;99.90;;;;;;4993221;28;20200;-75
2023/06/27 08:52:44;;;;;;;11.02;5.00;;;20.90;99.90;;;;;;5005697;28;20218;-75
2023/06/27 08:55:20;;;;;;;10.02;4.72;;;20.70;99.90;;;;;;4991867;28;20228;-75
2023/06/27 08:57:50;;;;;;;9.77;4.90;;;20.70;99.90;;;;;;5005046;28;20199;-76
2023/06/27 09:00:22;;;;;;;7.22;5.18;;;20.40;99.90;;;;;;5008077;28;20211;-76
2023/06/27 09:02:50;;;;;;;9.85;5.45;;;20.60;99.90;;;;;;5013627;28;20575;-76
2023/06/27 09:05:17;;;;;;;10.45;5.32;;;20.70;99.90;;;;;;5008135;28;20653;-75
2023/06/27 09:07:45;;;;;;;8.38;4.93;;;20.60;99.90;;;;;;4990296;28;20215;-74
2023/06/27 09:10:15;;;;;;;11.90;5.75;;;20.60;99.90;;;;;;5007143;28;20204;-75
2023/06/27 09:12:43;;;;;;;11.82;5.25;;;20.70;99.90;;;;;;4976963;28;20231;-76
2023/06/27 09:18:38;;;;;;;10.48;5.70;;;20.60;99.90;;;;;;5021456;28;20191;-76
2023/06/27 09:21:06;;;;;;;10.60;5.30;;;20.70;99.90;;;;;;4992775;28;20638;-75
2023/06/27 09:23:33;;;;;;;9.52;5.13;;;20.90;99.90;;;;;;5007275;28;20212;-76
2023/06/27 09:26:40;;;;;;;9.48;4.95;;;20.90;99.90;;;;;;4992710;28;20225;-76
2023/06/27 09:29:16;;;;;;;7.38;4.15;;;21.20;99.90;;;;;;5016236;28;20194;-75
2023/06/27 09:31:44;;;;;;;11.25;4.00;;;21.40;99.90;;;;;;5009217;28;20234;-75
2023/06/27 09:34:13;;;;;;;8.93;4.10;;;21.50;99.90;;;;;;5004481;28;20192;-76
2023/06/27 09:37:19;;;;;;;12.05;4.70;;;21.60;99.90;;;;;;5028928;28;20223;-76
2023/06/27 09:39:47;;;;;;;7.85;4.13;;;21.70;99.90;;;;;;5012192;28;20202;-75
2023/06/27 09:42:14;;;;;;;7.72;3.17;;;21.90;99.90;;;;;;5013032;28;20218;-77
2023/06/27 09:44:42;;;;;;;6.93;4.13;;;21.90;99.90;;;;;;5007726;28;20202;-75
2023/06/27 09:47:10;;;;;;;8.43;3.95;;;21.90;99.70;;;;;;5012949;28;20196;-75
2023/06/27 09:49:42;;;;;;;5.70;3.80;;;21.70;99.50;;;;;;5030364;28;20207;-75
2023/06/27 09:52:11;;;;;;;7.05;4.05;;;21.50;99.30;;;;;;5030001;28;20238;-77
2023/06/27 09:54:47;;;;;;;6.53;2.90;;;21.50;99.90;;;;;;5014251;28;20195;-75
2023/06/27 09:57:16;;;;;;;6.82;3.15;;;21.50;97.60;;;;;;5024063;28;20222;-75
2023/06/27 09:59:44;;;;;;;4.95;2.42;;;21.40;96.30;;;;;;5007958;28;20564;-75
2023/06/27 10:02:15;;;;;;;5.72;2.50;;;21.50;96.80;;;;;;5012018;28;20230;-75
2023/06/27 10:04:44;;;;;;;4.65;2.58;;;21.50;96.20;;;;;;5018424;28;20196;-75
2023/06/27 10:07:14;;;;;;;5.97;1.90;;;21.50;95.60;;;;;;5023965;28;20196;-75
2023/06/27 10:09:42;;;;;;;3.78;2.30;;;21.50;95.80;;;;;;5011074;28;20202;-75
2023/06/27 10:12:10;;;;;;;3.85;1.90;;;21.50;95.80;;;;;;5021314;28;20241;-76
2023/06/27 10:14:37;;;;;;;3.45;1.88;;;21.40;94.50;;;;;;5008085;28;20195;-75
2023/06/27 10:17:06;;;;;;;4.85;2.33;;;21.50;94.50;;;;;;5020339;28;20309;-75
2023/06/27 10:19:35;;;;;;;4.70;2.33;;;21.40;94.50;;;;;;5012049;28;20199;-75
2023/06/27 10:22:10;;;;;;;3.63;1.88;;;21.50;95.10;;;;;;5003704;28;20226;-75
2023/06/27 10:24:41;;;;;;;5.00;2.22;;;21.50;94.50;;;;;;5024395;28;20199;-75
2023/06/27 10:27:12;;;;;;;4.80;2.20;;;21.60;94.90;;;;;;5028458;28;20675;-75
2023/06/27 10:29:41;;;;;;;4.13;2.00;;;21.60;94.20;;;;;;5002605;28;20204;-75
2023/06/27 10:32:09;;;;;;;6.13;2.65;;;21.50;94.20;;;;;;5018833;28;20219;-75
2023/06/27 10:34:40;;;;;;;3.40;1.83;;;21.60;93.40;;;;;;5025127;28;20207;-75
2023/06/27 10:37:11;;;;;;;4.15;1.80;;;21.60;93.80;;;;;;5025769;28;20219;-75
2023/06/27 10:39:41;;;;;;;5.47;2.17;;;21.90;93.50;;;;;;5024325;28;20205;-75
2023/06/27 10:42:27;;;;;;;4.47;2.08;;;21.90;92.70;;;;;;5029380;28;20233;-75
2023/06/27 10:45:02;;;;;;;3.13;1.52;;;22.10;93.00;;;;;;5029012;28;20205;-75
2023/06/27 10:47:34;;;;;;;4.40;1.90;;;22.20;92.20;;;;;;5022550;28;20198;-75
2023/06/27 10:50:05;;;;;;;4.80;2.40;;;22.30;92.60;;;;;;5010863;28;20212;-75
2023/06/27 10:52:35;;;;;;;4.57;1.77;;;22.40;92.80;;;;;;5002268;28;20230;-75
2023/06/27 10:55:27;;;;;;;3.17;1.85;;;22.40;92.20;;;;;;5014630;28;20195;-75
2023/06/27 10:58:06;;;;;;;5.22;2.03;;;22.20;92.00;;;;;;5015934;28;20214;-75
2023/06/27 11:00:35;;;;;;;4.72;1.33;;;22.20;91.20;;;;;;5013200;28;20206;-75
2023/06/27 11:03:05;;;;;;;3.17;1.83;;;22.10;89.30;;;;;;5009882;28;20219;-75
2023/06/27 11:05:49;;;;;;;2.67;1.77;;;22.30;90.20;;;;;;5023716;28;20206;-75
2023/06/27 11:08:20;;;;;;;3.60;1.50;;;22.40;90.40;;;;;;5021801;28;20204;-77
2023/06/27 11:10:53;;;;;;;4.15;1.80;;;22.50;90.40;;;;;;5003553;28;20195;-75
2023/06/27 11:13:22;;;;;;;4.05;1.92;;;22.60;89.10;;;;;;5028225;28;20207;-75
2023/06/27 11:15:51;;;;;;;2.20;1.58;;;22.40;86.80;;;;;;5006449;28;20210;-75
2023/06/27 11:18:20;;;;;;;4.03;1.92;;;22.50;86.10;;;;;;5014481;28;20226;-75
2023/06/27 11:20:49;;;;;;;2.85;1.80;;;22.40;86.00;;;;;;5011419;28;20195;-75
2023/06/27 11:23:20;;;;;;;2.78;1.67;;;22.30;86.60;;;;;;5003236;28;20222;-75
2023/06/27 11:25:52;;;;;;;3.38;2.00;;;22.30;84.80;;;;;;5013138;28;20194;-75
2023/06/27 11:28:21;;;;;;;2.72;1.80;;;22.20;84.90;;;;;;5013047;28;20202;-76
2023/06/27 11:30:59;;;;;;;3.83;1.90;;;22.30;86.80;;;;;;5031568;28;20198;-75
2023/06/27 11:33:26;;;;;;;5.32;2.10;;;22.20;88.00;;;;;;5019451;28;20208;-75
2023/06/27 11:35:58;;;;;;;4.65;1.98;;;22.20;88.80;;;;;;5029477;28;20199;-75
2023/06/27 11:38:27;;;;;;;4.55;2.05;;;22.30;89.10;;;;;;5021634;28;20215;-77
2023/06/27 11:40:55;;;;;;;5.85;2.13;;;22.20;90.30;;;;;;5021345;28;20215;-78
2023/06/27 11:43:23;;;;;;;5.05;2.08;;;22.10;90.70;;;;;;5029446;28;20195;-75
2023/06/27 11:45:53;;;;;;;2.38;1.85;;;22.20;90.60;;;;;;5025170;28;20202;-75
2023/06/27 11:48:21;;;;;;;3.55;1.80;;;22.70;90.40;;;;;;5029667;28;20207;-75
2023/06/27 11:51:04;;;;;;;4.55;2.10;;;22.60;85.30;;;;;;5006250;28;20204;-75
2023/06/27 11:53:50;;;;;;;3.42;2.03;;;22.50;86.50;;;;;;5018198;28;20566;-75
2023/06/27 11:56:18;;;;;;;6.15;2.10;;;22.40;89.20;;;;;;5009699;28;20199;-75
2023/06/27 11:58:47;;;;;;;4.00;1.80;;;22.40;89.20;;;;;;5022768;28;20198;-75
2023/06/27 12:01:16;;;;;;;4.47;1.98;;;22.50;90.00;;;;;;5020016;28;20215;-75
2023/06/27 12:03:48;;;;;;;3.08;2.10;;;22.40;90.10;;;;;;5017873;28;20202;-75
2023/06/27 12:06:25;;;;;;;4.03;1.80;;;22.30;90.80;;;;;;5010226;28;20204;-75
2023/06/27 12:08:55;;;;;;;2.50;1.60;;;22.40;90.60;;;;;;5017846;28;20195;-76
2023/06/27 12:11:32;;;;;;;5.57;2.03;;;22.50;89.30;;;;;;5026492;28;20219;-76
2023/06/27 12:13:59;;;;;;;4.35;2.25;;;22.80;90.50;;;;;;5028527;28;20633;-76
2023/06/27 12:16:29;;;;;;;4.43;1.83;;;23.10;90.80;;;;;;5032728;28;20202;-76
2023/06/27 12:19:04;;;;;;;4.35;2.47;;;22.90;90.50;;;;;;5014122;28;20215;-76
2023/06/27 12:21:31;;;;;;;5.93;2.17;;;22.90;89.00;;;;;;5032647;28;20214;-76
2023/06/27 12:24:01;;;;;;;2.85;1.90;;;23.00;89.40;;;;;;5029334;28;20208;-75
2023/06/27 12:26:28;;;;;;;3.22;2.10;;;22.90;89.10;;;;;;5020740;28;20202;-75
2023/06/27 12:28:57;;;;;;;4.80;2.10;;;23.10;89.80;;;;;;5009383;28;20561;-75
2023/06/27 12:31:24;;;;;;;4.80;1.90;;;22.80;89.80;;;;;;5028735;28;20229;-75
2023/06/27 12:33:52;;;;;;;7.00;2.25;;;22.50;90.10;;;;;;5012025;28;20199;-75
2023/06/27 12:36:21;;;;;;;5.20;1.80;;;22.20;90.10;;;;;;5027604;28;20230;-75
2023/06/27 12:38:49;;;;;;;6.97;2.33;;;21.90;90.70;;;;;;5017377;28;20223;-75
2023/06/27 12:41:19;;;;;;;4.55;1.70;;;21.80;91.10;;;;;;5041531;28;20215;-75
2023/06/27 12:43:46;;;;;;;5.80;2.17;;;21.90;91.00;;;;;;5027048;28;20209;-75
2023/06/27 12:46:14;;;;;;;4.47;2.03;;;22.00;89.50;;;;;;5011417;28;20202;-75
2023/06/27 12:48:42;;;;;;;5.07;2.28;;;22.10;90.20;;;;;;5027581;28;20191;-75
2023/06/27 12:51:11;;;;;;;2.65;1.65;;;21.90;90.00;;;;;;5016448;28;20195;-78
2023/06/27 12:53:39;;;;;;;2.17;1.67;;;22.20;90.30;;;;;;5018959;28;20199;-76
2023/06/27 12:56:06;;;;;;;4.32;2.28;;;22.60;89.00;;;;;;5025898;28;20207;-76
2023/06/27 12:58:35;;;;;;;3.20;1.90;;;22.70;87.40;;;;;;5027990;28;20233;-76
2023/06/27 13:01:04;;;;;;;5.05;1.73;;;23.00;89.10;;;;;;5026270;28;20202;-76
2023/06/27 13:03:31;;;;;;;3.40;2.03;;;23.20;87.40;;;;;;5007388;28;20196;-76
2023/06/27 13:05:59;;;;;;;3.05;1.25;;;23.10;85.40;;;;;;5018607;28;20210;-76
2023/06/27 13:08:26;;;;;;;2.72;1.83;;;23.30;85.20;;;;;;5028323;28;20198;-76